sensor_id;sensor_type;location;lat;lon;timestamp;P1;durP1;ratioP1;P2;durP2;ratioP2
16699;SDS011;8466;52.286;21.124;2023-11-21T00:01:07;22.73;;;17.20;;
16699;SDS011;8466;52.286;21.124;2023-11-21T00:03:36;20.13;;;16.00;;
16699;SDS011;8466;52.286;21.124;2023-11-21T00:06:05;19.73;;;15.50;;
16699;SDS011;8466;52.286;21.124;2023-11-21T00:08:35;20.20;;;16.40;;
16699;SDS011;8466;52.286;21.124;2023-11-21T00:11:05;19.17;;;16.23;;
16699;SDS011;8466;52.286;21.124;2023-11-21T00:13:33;18.57;;;14.90;;
16699;SDS011;8466;52.286;21.124;2023-11-21T00:16:03;19.47;;;16.10;;
16699;SDS011;8466;52.286;21.124;2023-11-21T00:18:34;21.87;;;16.43;;
16699;SDS011;8466;52.286;21.124;2023-11-21T00:21:03;20.33;;;16.53;;
16699;SDS011;8466;52.286;21.124;2023-11-21T00:23:31;20.97;;;16.60;;
16699;SDS011;8466;52.286;21.124;2023-11-21T00:26:00;19.47;;;15.70;;
16699;SDS011;8466;52.286;21.124;2023-11-21T00:28:30;21.20;;;16.93;;
16699;SDS011;8466;52.286;21.124;2023-11-21T00:30:59;19.30;;;15.77;;
16699;SDS011;8466;52.286;21.124;2023-11-21T00:33:27;20.37;;;16.70;;
16699;SDS011;8466;52.286;21.124;2023-11-21T00:35:58;21.70;;;16.47;;
16699;SDS011;8466;52.286;21.124;2023-11-21T00:38:27;22.37;;;18.17;;
16699;SDS011;8466;52.286;21.124;2023-11-21T00:40:56;23.10;;;17.00;;
16699;SDS011;8466;52.286;21.124;2023-11-21T00:43:24;20.87;;;17.50;;
16699;SDS011;8466;52.286;21.124;2023-11-21T00:45:53;21.77;;;17.90;;
16699;SDS011;8466;52.286;21.124;2023-11-21T00:48:22;21.10;;;16.20;;
16699;SDS011;8466;52.286;21.124;2023-11-21T00:50:50;21.67;;;17.30;;
16699;SDS011;8466;52.286;21.124;2023-11-21T00:53:20;19.90;;;15.83;;
16699;SDS011;8466;52.286;21.124;2023-11-21T00:55:49;20.23;;;16.20;;
16699;SDS011;8466;52.286;21.124;2023-11-21T00:58:19;18.77;;;16.33;;
16699;SDS011;8466;52.286;21.124;2023-11-21T01:00:47;22.33;;;16.70;;
16699;SDS011;8466;52.286;21.124;2023-11-21T01:03:16;19.90;;;15.87;;
16699;SDS011;8466;52.286;21.124;2023-11-21T01:05:45;21.13;;;15.87;;
16699;SDS011;8466;52.286;21.124;2023-11-21T01:08:13;20.47;;;15.60;;
16699;SDS011;8466;52.286;21.124;2023-11-21T01:10:43;22.20;;;16.83;;
16699;SDS011;8466;52.286;21.124;2023-11-21T01:13:13;19.87;;;15.63;;
16699;SDS011;8466;52.286;21.124;2023-11-21T01:15:43;18.83;;;14.97;;
16699;SDS011;8466;52.286;21.124;2023-11-21T01:18:12;21.57;;;16.57;;
16699;SDS011;8466;52.286;21.124;2023-11-21T01:20:41;19.40;;;15.63;;
16699;SDS011;8466;52.286;21.124;2023-11-21T01:23:10;20.17;;;15.77;;
16699;SDS011;8466;52.286;21.124;2023-11-21T01:25:39;18.70;;;15.57;;
16699;SDS011;8466;52.286;21.124;2023-11-21T01:28:09;17.20;;;14.70;;
16699;SDS011;8466;52.286;21.124;2023-11-21T01:30:38;20.70;;;14.90;;
16699;SDS011;8466;52.286;21.124;2023-11-21T01:33:07;19.13;;;15.73;;
16699;SDS011;8466;52.286;21.124;2023-11-21T01:35:36;21.03;;;15.30;;
16699;SDS011;8466;52.286;21.124;2023-11-21T01:38:05;20.27;;;14.90;;
16699;SDS011;8466;52.286;21.124;2023-11-21T01:40:34;18.97;;;15.50;;
16699;SDS011;8466;52.286;21.124;2023-11-21T01:43:03;20.80;;;15.53;;
16699;SDS011;8466;52.286;21.124;2023-11-21T01:45:33;19.23;;;15.03;;
16699;SDS011;8466;52.286;21.124;2023-11-21T01:48:02;17.37;;;14.80;;
16699;SDS011;8466;52.286;21.124;2023-11-21T01:50:33;19.47;;;14.60;;
16699;SDS011;8466;52.286;21.124;2023-11-21T01:53:02;20.13;;;15.30;;
16699;SDS011;8466;52.286;21.124;2023-11-21T01:55:33;19.00;;;14.20;;
16699;SDS011;8466;52.286;21.124;2023-11-21T01:58:02;20.57;;;14.87;;
16699;SDS011;8466;52.286;21.124;2023-11-21T02:00:31;20.57;;;14.73;;
16699;SDS011;8466;52.286;21.124;2023-11-21T02:03:01;20.60;;;14.80;;
16699;SDS011;8466;52.286;21.124;2023-11-21T02:05:31;17.97;;;13.93;;
16699;SDS011;8466;52.286;21.124;2023-11-21T02:08:00;21.40;;;16.20;;
16699;SDS011;8466;52.286;21.124;2023-11-21T02:10:30;16.57;;;14.20;;
16699;SDS011;8466;52.286;21.124;2023-11-21T02:13:00;18.57;;;15.07;;
16699;SDS011;8466;52.286;21.124;2023-11-21T02:15:29;18.83;;;15.30;;
16699;SDS011;8466;52.286;21.124;2023-11-21T02:17:59;19.37;;;15.50;;
16699;SDS011;8466;52.286;21.124;2023-11-21T02:20:30;17.63;;;14.40;;
16699;SDS011;8466;52.286;21.124;2023-11-21T02:23:03;19.90;;;14.73;;
16699;SDS011;8466;52.286;21.124;2023-11-21T02:25:32;20.20;;;15.60;;
16699;SDS011;8466;52.286;21.124;2023-11-21T02:28:04;20.70;;;15.43;;
16699;SDS011;8466;52.286;21.124;2023-11-21T02:30:33;22.83;;;16.87;;
16699;SDS011;8466;52.286;21.124;2023-11-21T02:33:03;23.63;;;16.47;;
16699;SDS011;8466;52.286;21.124;2023-11-21T02:35:32;20.13;;;16.00;;
16699;SDS011;8466;52.286;21.124;2023-11-21T02:38:03;21.73;;;16.73;;
16699;SDS011;8466;52.286;21.124;2023-11-21T02:40:33;21.97;;;16.90;;
16699;SDS011;8466;52.286;21.124;2023-11-21T02:43:01;22.27;;;16.17;;
16699;SDS011;8466;52.286;21.124;2023-11-21T02:45:32;20.23;;;16.37;;
16699;SDS011;8466;52.286;21.124;2023-11-21T02:48:02;22.43;;;16.67;;
16699;SDS011;8466;52.286;21.124;2023-11-21T02:50:32;20.43;;;15.97;;
16699;SDS011;8466;52.286;21.124;2023-11-21T02:53:03;22.77;;;16.27;;
16699;SDS011;8466;52.286;21.124;2023-11-21T02:55:32;21.00;;;15.70;;
16699;SDS011;8466;52.286;21.124;2023-11-21T02:58:02;21.83;;;16.30;;
16699;SDS011;8466;52.286;21.124;2023-11-21T03:00:31;23.13;;;17.27;;
16699;SDS011;8466;52.286;21.124;2023-11-21T03:03:00;22.33;;;16.80;;
16699;SDS011;8466;52.286;21.124;2023-11-21T03:05:29;22.53;;;16.17;;
16699;SDS011;8466;52.286;21.124;2023-11-21T03:07:58;21.63;;;15.47;;
16699;SDS011;8466;52.286;21.124;2023-11-21T03:10:28;22.83;;;16.60;;
16699;SDS011;8466;52.286;21.124;2023-11-21T03:12:56;18.63;;;15.27;;
16699;SDS011;8466;52.286;21.124;2023-11-21T03:15:25;23.53;;;16.90;;
16699;SDS011;8466;52.286;21.124;2023-11-21T03:17:54;22.30;;;15.83;;
16699;SDS011;8466;52.286;21.124;2023-11-21T03:20:24;22.23;;;16.17;;
16699;SDS011;8466;52.286;21.124;2023-11-21T03:22:52;23.77;;;18.37;;
16699;SDS011;8466;52.286;21.124;2023-11-21T03:25:21;22.87;;;17.83;;
16699;SDS011;8466;52.286;21.124;2023-11-21T03:27:52;20.10;;;15.70;;
16699;SDS011;8466;52.286;21.124;2023-11-21T03:30:21;21.57;;;16.63;;
16699;SDS011;8466;52.286;21.124;2023-11-21T03:32:50;20.77;;;16.13;;
16699;SDS011;8466;52.286;21.124;2023-11-21T03:35:19;21.20;;;16.77;;
16699;SDS011;8466;52.286;21.124;2023-11-21T03:37:48;23.27;;;16.47;;
16699;SDS011;8466;52.286;21.124;2023-11-21T03:40:17;20.27;;;15.60;;
16699;SDS011;8466;52.286;21.124;2023-11-21T03:42:48;20.97;;;16.00;;
16699;SDS011;8466;52.286;21.124;2023-11-21T03:45:18;21.43;;;16.40;;
16699;SDS011;8466;52.286;21.124;2023-11-21T03:47:47;23.70;;;16.27;;
16699;SDS011;8466;52.286;21.124;2023-11-21T03:50:16;20.83;;;16.00;;
16699;SDS011;8466;52.286;21.124;2023-11-21T03:52:45;21.93;;;15.43;;
16699;SDS011;8466;52.286;21.124;2023-11-21T03:55:13;20.37;;;14.33;;
16699;SDS011;8466;52.286;21.124;2023-11-21T03:57:43;20.03;;;15.37;;
16699;SDS011;8466;52.286;21.124;2023-11-21T04:00:12;24.97;;;17.13;;
16699;SDS011;8466;52.286;21.124;2023-11-21T04:02:43;20.50;;;15.43;;
16699;SDS011;8466;52.286;21.124;2023-11-21T04:05:13;23.93;;;16.87;;
16699;SDS011;8466;52.286;21.124;2023-11-21T04:07:42;36.33;;;22.50;;
16699;SDS011;8466;52.286;21.124;2023-11-21T04:10:11;19.70;;;15.13;;
16699;SDS011;8466;52.286;21.124;2023-11-21T04:12:40;22.80;;;15.90;;
16699;SDS011;8466;52.286;21.124;2023-11-21T04:15:09;21.77;;;14.90;;
16699;SDS011;8466;52.286;21.124;2023-11-21T04:17:39;17.90;;;13.73;;
16699;SDS011;8466;52.286;21.124;2023-11-21T04:20:10;19.67;;;13.90;;
16699;SDS011;8466;52.286;21.124;2023-11-21T04:22:39;18.57;;;14.50;;
16699;SDS011;8466;52.286;21.124;2023-11-21T04:25:11;18.63;;;13.73;;
16699;SDS011;8466;52.286;21.124;2023-11-21T04:27:42;23.10;;;17.03;;
16699;SDS011;8466;52.286;21.124;2023-11-21T04:30:12;23.80;;;17.47;;
16699;SDS011;8466;52.286;21.124;2023-11-21T04:32:41;33.33;;;22.33;;
16699;SDS011;8466;52.286;21.124;2023-11-21T04:35:12;20.17;;;14.73;;
16699;SDS011;8466;52.286;21.124;2023-11-21T04:37:41;16.73;;;13.47;;
16699;SDS011;8466;52.286;21.124;2023-11-21T04:40:10;16.47;;;13.17;;
16699;SDS011;8466;52.286;21.124;2023-11-21T04:42:39;22.27;;;15.60;;
16699;SDS011;8466;52.286;21.124;2023-11-21T04:45:09;24.13;;;16.10;;
16699;SDS011;8466;52.286;21.124;2023-11-21T04:47:39;23.00;;;15.33;;
16699;SDS011;8466;52.286;21.124;2023-11-21T04:50:08;20.90;;;14.25;;
16699;SDS011;8466;52.286;21.124;2023-11-21T04:52:39;16.63;;;13.60;;
16699;SDS011;8466;52.286;21.124;2023-11-21T04:55:08;16.87;;;12.50;;
16699;SDS011;8466;52.286;21.124;2023-11-21T04:57:37;17.83;;;13.57;;
16699;SDS011;8466;52.286;21.124;2023-11-21T05:00:09;17.17;;;12.87;;
16699;SDS011;8466;52.286;21.124;2023-11-21T05:02:39;17.00;;;13.00;;
16699;SDS011;8466;52.286;21.124;2023-11-21T05:05:10;17.23;;;13.70;;
16699;SDS011;8466;52.286;21.124;2023-11-21T05:07:40;16.30;;;12.57;;
16699;SDS011;8466;52.286;21.124;2023-11-21T05:10:09;16.03;;;12.03;;
16699;SDS011;8466;52.286;21.124;2023-11-21T05:12:41;16.67;;;12.23;;
16699;SDS011;8466;52.286;21.124;2023-11-21T05:15:12;15.70;;;12.87;;
16699;SDS011;8466;52.286;21.124;2023-11-21T05:17:44;15.10;;;12.00;;
16699;SDS011;8466;52.286;21.124;2023-11-21T05:20:14;15.17;;;11.20;;
16699;SDS011;8466;52.286;21.124;2023-11-21T05:22:49;15.63;;;11.97;;
16699;SDS011;8466;52.286;21.124;2023-11-21T05:25:18;14.93;;;11.37;;
16699;SDS011;8466;52.286;21.124;2023-11-21T05:27:47;13.53;;;11.30;;
16699;SDS011;8466;52.286;21.124;2023-11-21T05:30:16;16.53;;;11.97;;
16699;SDS011;8466;52.286;21.124;2023-11-21T05:32:45;14.10;;;10.70;;
16699;SDS011;8466;52.286;21.124;2023-11-21T05:35:14;15.67;;;11.17;;
16699;SDS011;8466;52.286;21.124;2023-11-21T05:37:44;12.93;;;10.17;;
16699;SDS011;8466;52.286;21.124;2023-11-21T05:40:15;15.67;;;10.93;;
16699;SDS011;8466;52.286;21.124;2023-11-21T05:42:44;13.27;;;10.40;;
16699;SDS011;8466;52.286;21.124;2023-11-21T05:45:13;15.03;;;10.57;;
16699;SDS011;8466;52.286;21.124;2023-11-21T05:47:42;17.10;;;12.23;;
16699;SDS011;8466;52.286;21.124;2023-11-21T05:50:14;13.97;;;11.40;;
16699;SDS011;8466;52.286;21.124;2023-11-21T05:52:45;25.83;;;19.53;;
16699;SDS011;8466;52.286;21.124;2023-11-21T05:55:16;19.40;;;14.33;;
16699;SDS011;8466;52.286;21.124;2023-11-21T05:57:47;18.03;;;13.30;;
16699;SDS011;8466;52.286;21.124;2023-11-21T06:00:16;14.10;;;11.30;;
16699;SDS011;8466;52.286;21.124;2023-11-21T06:02:47;17.43;;;13.67;;
16699;SDS011;8466;52.286;21.124;2023-11-21T06:05:21;16.57;;;12.73;;
16699;SDS011;8466;52.286;21.124;2023-11-21T06:07:52;16.67;;;12.80;;
16699;SDS011;8466;52.286;21.124;2023-11-21T06:10:24;14.33;;;11.27;;
16699;SDS011;8466;52.286;21.124;2023-11-21T06:12:53;13.57;;;10.80;;
16699;SDS011;8466;52.286;21.124;2023-11-21T06:15:30;13.73;;;11.37;;
16699;SDS011;8466;52.286;21.124;2023-11-21T06:17:58;18.30;;;11.97;;
16699;SDS011;8466;52.286;21.124;2023-11-21T06:20:27;15.07;;;12.87;;
16699;SDS011;8466;52.286;21.124;2023-11-21T06:22:57;16.10;;;12.30;;
16699;SDS011;8466;52.286;21.124;2023-11-21T06:25:32;13.57;;;11.00;;
16699;SDS011;8466;52.286;21.124;2023-11-21T06:28:03;15.17;;;13.23;;
16699;SDS011;8466;52.286;21.124;2023-11-21T06:30:31;17.30;;;13.20;;
16699;SDS011;8466;52.286;21.124;2023-11-21T06:33:00;20.97;;;16.77;;
16699;SDS011;8466;52.286;21.124;2023-11-21T06:35:29;15.97;;;13.67;;
16699;SDS011;8466;52.286;21.124;2023-11-21T06:38:00;21.87;;;19.17;;
16699;SDS011;8466;52.286;21.124;2023-11-21T06:40:29;19.07;;;13.77;;
16699;SDS011;8466;52.286;21.124;2023-11-21T06:43:01;21.27;;;17.40;;
16699;SDS011;8466;52.286;21.124;2023-11-21T06:45:31;17.23;;;13.77;;
16699;SDS011;8466;52.286;21.124;2023-11-21T06:48:01;17.17;;;13.80;;
16699;SDS011;8466;52.286;21.124;2023-11-21T06:50:35;17.03;;;13.47;;
16699;SDS011;8466;52.286;21.124;2023-11-21T06:53:04;17.00;;;12.47;;
16699;SDS011;8466;52.286;21.124;2023-11-21T06:55:35;17.20;;;13.00;;
16699;SDS011;8466;52.286;21.124;2023-11-21T06:58:04;15.93;;;12.63;;
16699;SDS011;8466;52.286;21.124;2023-11-21T07:00:33;19.40;;;12.90;;
16699;SDS011;8466;52.286;21.124;2023-11-21T07:03:02;18.60;;;13.77;;
16699;SDS011;8466;52.286;21.124;2023-11-21T07:05:31;16.63;;;12.40;;
16699;SDS011;8466;52.286;21.124;2023-11-21T07:08:00;14.60;;;11.23;;
16699;SDS011;8466;52.286;21.124;2023-11-21T07:10:31;17.40;;;12.37;;
16699;SDS011;8466;52.286;21.124;2023-11-21T07:13:03;17.10;;;12.77;;
16699;SDS011;8466;52.286;21.124;2023-11-21T07:15:32;16.50;;;12.07;;
16699;SDS011;8466;52.286;21.124;2023-11-21T07:18:00;14.55;;;12.88;;
16699;SDS011;8466;52.286;21.124;2023-11-21T07:20:29;15.70;;;12.47;;
16699;SDS011;8466;52.286;21.124;2023-11-21T07:22:58;15.97;;;12.37;;
16699;SDS011;8466;52.286;21.124;2023-11-21T07:25:27;18.40;;;12.90;;
16699;SDS011;8466;52.286;21.124;2023-11-21T07:28:03;16.40;;;12.10;;
16699;SDS011;8466;52.286;21.124;2023-11-21T07:30:32;14.07;;;11.60;;
16699;SDS011;8466;52.286;21.124;2023-11-21T07:33:01;15.80;;;12.83;;
16699;SDS011;8466;52.286;21.124;2023-11-21T07:35:31;15.63;;;11.73;;
16699;SDS011;8466;52.286;21.124;2023-11-21T07:38:00;15.83;;;11.90;;
16699;SDS011;8466;52.286;21.124;2023-11-21T07:40:30;15.03;;;11.77;;
16699;SDS011;8466;52.286;21.124;2023-11-21T07:42:59;14.80;;;12.03;;
16699;SDS011;8466;52.286;21.124;2023-11-21T07:45:30;15.90;;;11.60;;
16699;SDS011;8466;52.286;21.124;2023-11-21T07:47:59;15.03;;;11.43;;
16699;SDS011;8466;52.286;21.124;2023-11-21T07:50:30;23.83;;;19.80;;
16699;SDS011;8466;52.286;21.124;2023-11-21T07:53:00;14.73;;;11.83;;
16699;SDS011;8466;52.286;21.124;2023-11-21T07:55:32;14.80;;;11.70;;
16699;SDS011;8466;52.286;21.124;2023-11-21T07:58:01;14.80;;;12.07;;
16699;SDS011;8466;52.286;21.124;2023-11-21T08:00:32;14.57;;;11.33;;
16699;SDS011;8466;52.286;21.124;2023-11-21T08:03:01;16.23;;;12.73;;
16699;SDS011;8466;52.286;21.124;2023-11-21T08:05:32;19.47;;;15.83;;
16699;SDS011;8466;52.286;21.124;2023-11-21T08:08:03;16.67;;;12.93;;
16699;SDS011;8466;52.286;21.124;2023-11-21T08:10:32;17.63;;;12.53;;
16699;SDS011;8466;52.286;21.124;2023-11-21T08:13:09;16.27;;;12.70;;
16699;SDS011;8466;52.286;21.124;2023-11-21T08:15:44;16.87;;;12.70;;
16699;SDS011;8466;52.286;21.124;2023-11-21T08:18:18;15.63;;;13.75;;
16699;SDS011;8466;52.286;21.124;2023-11-21T08:21:01;15.93;;;12.87;;
16699;SDS011;8466;52.286;21.124;2023-11-21T08:24:08;17.10;;;12.60;;
16699;SDS011;8466;52.286;21.124;2023-11-21T08:26:46;18.97;;;15.00;;
16699;SDS011;8466;52.286;21.124;2023-11-21T08:29:36;18.63;;;14.97;;
16699;SDS011;8466;52.286;21.124;2023-11-21T08:32:23;19.13;;;14.67;;
16699;SDS011;8466;52.286;21.124;2023-11-21T08:34:52;17.63;;;14.70;;
16699;SDS011;8466;52.286;21.124;2023-11-21T08:37:22;20.50;;;14.63;;
16699;SDS011;8466;52.286;21.124;2023-11-21T08:39:53;19.97;;;14.13;;
16699;SDS011;8466;52.286;21.124;2023-11-21T08:42:25;20.77;;;14.87;;
16699;SDS011;8466;52.286;21.124;2023-11-21T08:48:03;18.17;;;15.03;;
16699;SDS011;8466;52.286;21.124;2023-11-21T08:50:33;19.17;;;14.63;;
16699;SDS011;8466;52.286;21.124;2023-11-21T08:53:01;20.03;;;14.77;;
16699;SDS011;8466;52.286;21.124;2023-11-21T08:55:32;22.27;;;15.33;;
16699;SDS011;8466;52.286;21.124;2023-11-21T08:58:04;21.70;;;15.57;;
16699;SDS011;8466;52.286;21.124;2023-11-21T09:00:33;20.67;;;14.43;;
16699;SDS011;8466;52.286;21.124;2023-11-21T09:03:04;17.63;;;13.43;;
16699;SDS011;8466;52.286;21.124;2023-11-21T09:05:37;17.97;;;14.60;;
16699;SDS011;8466;52.286;21.124;2023-11-21T09:08:07;20.03;;;15.00;;
16699;SDS011;8466;52.286;21.124;2023-11-21T09:10:36;22.03;;;17.03;;
16699;SDS011;8466;52.286;21.124;2023-11-21T09:13:06;20.33;;;14.40;;
16699;SDS011;8466;52.286;21.124;2023-11-21T09:15:37;17.93;;;13.53;;
16699;SDS011;8466;52.286;21.124;2023-11-21T09:18:09;18.90;;;14.03;;
16699;SDS011;8466;52.286;21.124;2023-11-21T09:20:43;19.73;;;14.83;;
16699;SDS011;8466;52.286;21.124;2023-11-21T09:23:12;18.98;;;16.60;;
16699;SDS011;8466;52.286;21.124;2023-11-21T09:25:41;21.77;;;17.52;;
16699;SDS011;8466;52.286;21.124;2023-11-21T09:28:13;23.63;;;15.83;;
16699;SDS011;8466;52.286;21.124;2023-11-21T09:30:42;21.52;;;15.38;;
16699;SDS011;8466;52.286;21.124;2023-11-21T09:33:12;21.97;;;14.53;;
16699;SDS011;8466;52.286;21.124;2023-11-21T09:35:41;20.80;;;14.90;;
16699;SDS011;8466;52.286;21.124;2023-11-21T09:38:11;18.07;;;14.00;;
16699;SDS011;8466;52.286;21.124;2023-11-21T09:40:40;15.90;;;12.37;;
16699;SDS011;8466;52.286;21.124;2023-11-21T09:43:11;17.30;;;12.83;;
16699;SDS011;8466;52.286;21.124;2023-11-21T09:45:45;20.27;;;13.23;;
16699;SDS011;8466;52.286;21.124;2023-11-21T09:48:16;19.13;;;14.10;;
16699;SDS011;8466;52.286;21.124;2023-11-21T09:50:48;22.93;;;15.53;;
16699;SDS011;8466;52.286;21.124;2023-11-21T09:53:21;27.83;;;16.00;;
16699;SDS011;8466;52.286;21.124;2023-11-21T09:55:52;22.93;;;16.20;;
16699;SDS011;8466;52.286;21.124;2023-11-21T09:58:21;29.63;;;17.27;;
16699;SDS011;8466;52.286;21.124;2023-11-21T10:00:52;21.30;;;15.67;;
16699;SDS011;8466;52.286;21.124;2023-11-21T10:03:25;19.80;;;16.17;;
16699;SDS011;8466;52.286;21.124;2023-11-21T10:06:02;25.60;;;15.33;;
16699;SDS011;8466;52.286;21.124;2023-11-21T10:08:32;28.20;;;16.07;;
16699;SDS011;8466;52.286;21.124;2023-11-21T10:11:15;26.50;;;16.53;;
16699;SDS011;8466;52.286;21.124;2023-11-21T10:13:48;29.07;;;16.40;;
16699;SDS011;8466;52.286;21.124;2023-11-21T10:16:20;20.63;;;16.07;;
16699;SDS011;8466;52.286;21.124;2023-11-21T10:18:52;21.77;;;15.80;;
16699;SDS011;8466;52.286;21.124;2023-11-21T10:21:36;20.77;;;15.10;;
16699;SDS011;8466;52.286;21.124;2023-11-21T10:24:07;18.97;;;15.23;;
16699;SDS011;8466;52.286;21.124;2023-11-21T10:26:35;25.73;;;18.07;;
16699;SDS011;8466;52.286;21.124;2023-11-21T10:29:18;23.90;;;16.30;;
16699;SDS011;8466;52.286;21.124;2023-11-21T10:31:49;21.53;;;14.17;;
16699;SDS011;8466;52.286;21.124;2023-11-21T10:34:25;28.43;;;15.80;;
16699;SDS011;8466;52.286;21.124;2023-11-21T10:36:55;22.57;;;15.13;;
16699;SDS011;8466;52.286;21.124;2023-11-21T10:39:24;20.47;;;14.07;;
16699;SDS011;8466;52.286;21.124;2023-11-21T10:41:57;20.93;;;14.53;;
16699;SDS011;8466;52.286;21.124;2023-11-21T10:44:27;24.73;;;15.10;;
16699;SDS011;8466;52.286;21.124;2023-11-21T10:46:56;19.17;;;14.37;;
16699;SDS011;8466;52.286;21.124;2023-11-21T10:49:29;19.73;;;14.87;;
16699;SDS011;8466;52.286;21.124;2023-11-21T10:51:59;22.03;;;16.33;;
16699;SDS011;8466;52.286;21.124;2023-11-21T10:54:28;21.23;;;15.57;;
16699;SDS011;8466;52.286;21.124;2023-11-21T10:56:57;24.90;;;15.83;;
16699;SDS011;8466;52.286;21.124;2023-11-21T10:59:28;21.53;;;14.67;;
16699;SDS011;8466;52.286;21.124;2023-11-21T11:01:59;20.85;;;17.08;;
16699;SDS011;8466;52.286;21.124;2023-11-21T11:04:35;23.77;;;16.00;;
16699;SDS011;8466;52.286;21.124;2023-11-21T11:07:13;22.08;;;18.60;;
16699;SDS011;8466;52.286;21.124;2023-11-21T11:09:44;23.43;;;17.43;;
16699;SDS011;8466;52.286;21.124;2023-11-21T11:12:14;20.90;;;16.63;;
16699;SDS011;8466;52.286;21.124;2023-11-21T11:14:46;21.83;;;15.97;;
16699;SDS011;8466;52.286;21.124;2023-11-21T11:17:16;20.23;;;15.57;;
16699;SDS011;8466;52.286;21.124;2023-11-21T11:19:48;21.23;;;15.93;;
16699;SDS011;8466;52.286;21.124;2023-11-21T11:22:21;20.40;;;14.47;;
16699;SDS011;8466;52.286;21.124;2023-11-21T11:25:03;20.50;;;15.60;;
16699;SDS011;8466;52.286;21.124;2023-11-21T11:27:52;19.23;;;14.83;;
16699;SDS011;8466;52.286;21.124;2023-11-21T11:30:26;20.37;;;16.00;;
16699;SDS011;8466;52.286;21.124;2023-11-21T11:33:08;22.23;;;15.30;;
16699;SDS011;8466;52.286;21.124;2023-11-21T11:35:47;19.83;;;15.13;;
16699;SDS011;8466;52.286;21.124;2023-11-21T11:38:22;20.80;;;16.00;;
16699;SDS011;8466;52.286;21.124;2023-11-21T11:40:52;24.00;;;16.97;;
16699;SDS011;8466;52.286;21.124;2023-11-21T11:43:25;22.60;;;15.37;;
16699;SDS011;8466;52.286;21.124;2023-11-21T11:45:55;21.17;;;16.00;;
16699;SDS011;8466;52.286;21.124;2023-11-21T11:48:26;20.50;;;15.50;;
16699;SDS011;8466;52.286;21.124;2023-11-21T11:51:02;21.37;;;16.30;;
16699;SDS011;8466;52.286;21.124;2023-11-21T11:53:35;20.60;;;16.17;;
16699;SDS011;8466;52.286;21.124;2023-11-21T11:56:22;26.20;;;16.07;;
16699;SDS011;8466;52.286;21.124;2023-11-21T11:58:53;27.53;;;17.37;;
16699;SDS011;8466;52.286;21.124;2023-11-21T12:01:24;26.70;;;17.13;;
16699;SDS011;8466;52.286;21.124;2023-11-21T12:07:03;23.33;;;17.23;;
16699;SDS011;8466;52.286;21.124;2023-11-21T12:09:32;23.77;;;18.47;;
16699;SDS011;8466;52.286;21.124;2023-11-21T12:12:02;22.93;;;16.67;;
16699;SDS011;8466;52.286;21.124;2023-11-21T12:14:31;22.27;;;17.13;;
16699;SDS011;8466;52.286;21.124;2023-11-21T12:17:15;27.07;;;17.43;;
16699;SDS011;8466;52.286;21.124;2023-11-21T12:19:44;23.93;;;16.73;;
16699;SDS011;8466;52.286;21.124;2023-11-21T12:22:14;30.30;;;17.43;;
16699;SDS011;8466;52.286;21.124;2023-11-21T12:24:43;21.40;;;15.77;;
16699;SDS011;8466;52.286;21.124;2023-11-21T12:27:12;20.10;;;16.23;;
16699;SDS011;8466;52.286;21.124;2023-11-21T12:29:42;24.47;;;17.60;;
16699;SDS011;8466;52.286;21.124;2023-11-21T12:32:11;29.97;;;16.43;;
16699;SDS011;8466;52.286;21.124;2023-11-21T12:34:42;33.43;;;17.67;;
16699;SDS011;8466;52.286;21.124;2023-11-21T12:37:11;22.17;;;16.10;;
16699;SDS011;8466;52.286;21.124;2023-11-21T12:39:41;23.67;;;18.80;;
16699;SDS011;8466;52.286;21.124;2023-11-21T12:42:10;20.38;;;18.00;;
16699;SDS011;8466;52.286;21.124;2023-11-21T12:44:39;20.40;;;16.30;;
16699;SDS011;8466;52.286;21.124;2023-11-21T12:47:08;20.50;;;16.07;;
16699;SDS011;8466;52.286;21.124;2023-11-21T12:49:41;21.47;;;16.33;;
16699;SDS011;8466;52.286;21.124;2023-11-21T12:52:11;20.30;;;15.67;;
16699;SDS011;8466;52.286;21.124;2023-11-21T12:54:41;19.77;;;16.00;;
16699;SDS011;8466;52.286;21.124;2023-11-21T12:57:10;21.17;;;16.20;;
16699;SDS011;8466;52.286;21.124;2023-11-21T12:59:39;21.20;;;16.37;;
16699;SDS011;8466;52.286;21.124;2023-11-21T13:02:12;24.83;;;16.43;;
16699;SDS011;8466;52.286;21.124;2023-11-21T13:04:42;23.60;;;16.57;;
16699;SDS011;8466;52.286;21.124;2023-11-21T13:07:11;23.00;;;16.97;;
16699;SDS011;8466;52.286;21.124;2023-11-21T13:09:42;24.00;;;17.40;;
16699;SDS011;8466;52.286;21.124;2023-11-21T13:12:12;23.33;;;17.43;;
16699;SDS011;8466;52.286;21.124;2023-11-21T13:14:45;25.07;;;18.40;;
16699;SDS011;8466;52.286;21.124;2023-11-21T13:17:14;22.80;;;20.20;;
16699;SDS011;8466;52.286;21.124;2023-11-21T13:19:43;25.43;;;18.17;;
16699;SDS011;8466;52.286;21.124;2023-11-21T13:22:11;22.30;;;18.08;;
16699;SDS011;8466;52.286;21.124;2023-11-21T13:24:43;23.03;;;17.10;;
16699;SDS011;8466;52.286;21.124;2023-11-21T13:27:12;24.73;;;17.57;;
16699;SDS011;8466;52.286;21.124;2023-11-21T13:29:42;25.43;;;17.53;;
16699;SDS011;8466;52.286;21.124;2023-11-21T13:32:11;25.57;;;18.83;;
16699;SDS011;8466;52.286;21.124;2023-11-21T13:34:41;27.37;;;19.37;;
16699;SDS011;8466;52.286;21.124;2023-11-21T13:37:13;28.80;;;19.27;;
16699;SDS011;8466;52.286;21.124;2023-11-21T13:39:43;32.10;;;19.87;;
16699;SDS011;8466;52.286;21.124;2023-11-21T13:42:17;29.47;;;18.73;;
16699;SDS011;8466;52.286;21.124;2023-11-21T13:44:49;25.73;;;19.47;;
16699;SDS011;8466;52.286;21.124;2023-11-21T13:47:18;24.83;;;18.77;;
16699;SDS011;8466;52.286;21.124;2023-11-21T13:49:47;23.23;;;18.30;;
16699;SDS011;8466;52.286;21.124;2023-11-21T13:52:16;44.23;;;22.23;;
16699;SDS011;8466;52.286;21.124;2023-11-21T13:54:50;28.20;;;19.60;;
16699;SDS011;8466;52.286;21.124;2023-11-21T13:57:19;31.73;;;19.90;;
16699;SDS011;8466;52.286;21.124;2023-11-21T13:59:48;32.63;;;20.03;;
16699;SDS011;8466;52.286;21.124;2023-11-21T14:02:18;27.07;;;19.90;;
16699;SDS011;8466;52.286;21.124;2023-11-21T14:04:54;31.60;;;20.00;;
16699;SDS011;8466;52.286;21.124;2023-11-21T14:07:27;26.23;;;18.97;;
16699;SDS011;8466;52.286;21.124;2023-11-21T14:10:05;36.13;;;20.37;;
16699;SDS011;8466;52.286;21.124;2023-11-21T14:12:39;39.53;;;21.27;;
16699;SDS011;8466;52.286;21.124;2023-11-21T14:15:09;52.13;;;20.53;;
16699;SDS011;8466;52.286;21.124;2023-11-21T14:17:43;44.30;;;21.20;;
16699;SDS011;8466;52.286;21.124;2023-11-21T14:20:12;29.60;;;19.40;;
16699;SDS011;8466;52.286;21.124;2023-11-21T14:22:43;48.67;;;22.33;;
16699;SDS011;8466;52.286;21.124;2023-11-21T14:25:15;28.63;;;20.40;;
16699;SDS011;8466;52.286;21.124;2023-11-21T14:27:45;50.43;;;22.63;;
16699;SDS011;8466;52.286;21.124;2023-11-21T14:30:14;55.37;;;23.53;;
16699;SDS011;8466;52.286;21.124;2023-11-21T14:32:45;33.67;;;20.80;;
16699;SDS011;8466;52.286;21.124;2023-11-21T14:35:14;32.13;;;22.20;;
16699;SDS011;8466;52.286;21.124;2023-11-21T14:37:43;36.50;;;24.43;;
16699;SDS011;8466;52.286;21.124;2023-11-21T14:40:14;28.43;;;20.17;;
16699;SDS011;8466;52.286;21.124;2023-11-21T14:42:48;30.63;;;22.90;;
16699;SDS011;8466;52.286;21.124;2023-11-21T14:45:18;25.03;;;19.13;;
16699;SDS011;8466;52.286;21.124;2023-11-21T14:47:47;25.03;;;18.23;;